createdAt,value
2023-01-12T00:01:27.587Z,16.35
2023-01-12T00:04:14.053Z,15.95
2023-01-12T00:07:00.188Z,16.40
2023-01-12T00:09:45.470Z,17.67
2023-01-12T00:12:30.968Z,15.65
2023-01-12T00:15:16.293Z,19.50
2023-01-12T00:18:01.617Z,18.65
2023-01-12T00:20:50.309Z,18.67
2023-01-12T00:23:35.768Z,19.35
2023-01-12T00:26:21.198Z,19.75
2023-01-12T00:29:06.494Z,20.70
2023-01-12T00:31:53.474Z,19.08
2023-01-12T00:34:38.913Z,19.90
2023-01-12T00:37:26.029Z,19.60
2023-01-12T00:40:11.897Z,18.62
2023-01-12T00:43:15.758Z,16.58
2023-01-12T00:46:01.111Z,17.08
2023-01-12T00:48:46.736Z,17.30
2023-01-12T00:51:33.478Z,17.77
2023-01-12T00:54:18.732Z,17.42
2023-01-12T00:57:06.377Z,16.42
2023-01-12T00:59:55.085Z,15.98
2023-01-12T01:02:40.497Z,15.43
2023-01-12T01:05:26.672Z,15.70
2023-01-12T01:08:12.752Z,15.70
2023-01-12T01:11:06.402Z,17.02
2023-01-12T01:13:53.885Z,15.40
2023-01-12T01:16:38.941Z,15.70
2023-01-12T01:19:24.373Z,17.50
2023-01-12T01:22:11.751Z,17.30
2023-01-12T01:24:57.451Z,14.52
2023-01-12T01:27:43.209Z,15.25
2023-01-12T01:30:28.422Z,18.12
2023-01-12T01:33:14.756Z,18.08
2023-01-12T01:36:00.245Z,17.23
2023-01-12T01:38:47.124Z,17.12
2023-01-12T01:41:33.433Z,17.23
2023-01-12T01:44:30.807Z,16.05
2023-01-12T01:47:27.014Z,13.75
2023-01-12T01:50:20.570Z,14.05
2023-01-12T01:53:12.478Z,12.88
2023-01-12T01:56:01.893Z,12.40
2023-01-12T01:58:51.972Z,13.80
2023-01-12T02:01:39.092Z,14.25
2023-01-12T02:04:26.790Z,13.10
2023-01-12T02:07:12.678Z,13.62
2023-01-12T02:10:00.791Z,13.13
2023-01-12T02:13:04.988Z,13.90
2023-01-12T02:16:23.197Z,14.52
2023-01-12T02:19:24.454Z,14.10
2023-01-12T02:22:33.634Z,14.15
2023-01-12T02:25:43.919Z,16.77
2023-01-12T02:28:45.972Z,15.05
2023-01-12T02:31:47.742Z,16.02
2023-01-12T02:34:42.039Z,15.80
2023-01-12T02:37:45.895Z,15.70
2023-01-12T02:40:41.745Z,15.63
2023-01-12T02:43:30.745Z,16.85
2023-01-12T02:46:28.113Z,14.65
2023-01-12T02:49:18.183Z,14.87
2023-01-12T02:52:09.852Z,13.80
2023-01-12T02:54:55.332Z,11.80
2023-01-12T02:57:41.217Z,9.05
2023-01-12T03:00:27.086Z,9.85
2023-01-12T03:03:12.733Z,10.95
2023-01-12T03:05:59.835Z,8.85
2023-01-12T03:08:47.299Z,8.35
2023-01-12T03:11:32.972Z,10.27
2023-01-12T03:14:18.553Z,9.25
2023-01-12T03:17:07.604Z,9.52
2023-01-12T03:19:54.983Z,9.30
2023-01-12T03:22:42.180Z,10.27
2023-01-12T03:25:28.613Z,8.73
2023-01-12T03:28:15.032Z,8.68
2023-01-12T03:31:12.035Z,9.43
2023-01-12T03:33:59.093Z,8.68
2023-01-12T03:36:56.411Z,10.68
2023-01-12T03:40:01.247Z,10.77
2023-01-12T03:42:52.895Z,10.65
2023-01-12T03:45:39.604Z,11.20
2023-01-12T03:48:27.616Z,11.45
2023-01-12T03:51:42.576Z,14.02
2023-01-12T03:54:28.904Z,13.62
2023-01-12T03:57:14.403Z,12.70
2023-01-12T04:00:00.392Z,15.07
2023-01-12T04:02:45.661Z,14.60
2023-01-12T04:05:30.601Z,14.60
2023-01-12T04:08:16.527Z,15.70
2023-01-12T04:11:22.086Z,12.65
2023-01-12T04:14:07.511Z,14.48
2023-01-12T04:16:53.050Z,15.23
2023-01-12T04:19:38.472Z,14.00
2023-01-12T04:22:42.315Z,16.50
2023-01-12T04:25:27.708Z,15.20
2023-01-12T04:28:13.263Z,14.93
2023-01-12T04:30:58.320Z,15.05
2023-01-12T04:33:44.188Z,15.43
2023-01-12T04:36:29.554Z,16.08
2023-01-12T04:39:15.014Z,15.43
2023-01-12T04:42:00.486Z,11.55
2023-01-12T04:44:45.968Z,12.32
2023-01-12T04:47:31.516Z,13.48
2023-01-12T04:50:16.698Z,14.30
2023-01-12T04:53:03.843Z,15.05
2023-01-12T04:55:50.085Z,13.52
2023-01-12T04:58:35.764Z,15.15
2023-01-12T05:01:22.444Z,12.63
2023-01-12T05:04:08.904Z,13.50
2023-01-12T05:06:53.949Z,13.75
2023-01-12T05:09:59.070Z,11.80
2023-01-12T05:12:44.480Z,11.85
2023-01-12T05:15:29.511Z,13.50
2023-01-12T05:18:15.581Z,12.30
2023-01-12T05:21:00.826Z,15.02
2023-01-12T05:23:46.130Z,14.87
2023-01-12T05:26:31.457Z,17.62
2023-01-12T05:29:16.872Z,15.57
2023-01-12T05:32:02.326Z,17.55
2023-01-12T05:34:47.720Z,16.45
2023-01-12T05:37:33.666Z,15.85
2023-01-12T05:40:18.702Z,22.62
2023-01-12T05:43:22.561Z,15.40
2023-01-12T05:46:08.022Z,15.35
2023-01-12T05:48:55.495Z,19.92
2023-01-12T05:51:41.145Z,17.12
2023-01-12T05:54:27.462Z,18.60
2023-01-12T05:57:12.861Z,22.17
2023-01-12T05:59:59.542Z,15.05
2023-01-12T06:02:44.979Z,14.63
2023-01-12T06:05:30.354Z,14.18
2023-01-12T06:08:16.961Z,15.10
2023-01-12T06:11:03.459Z,15.40
2023-01-12T06:13:57.936Z,16.00
2023-01-12T06:16:44.114Z,14.80
2023-01-12T06:19:29.494Z,16.35
2023-01-12T06:22:15.286Z,17.27
2023-01-12T06:25:00.716Z,19.60
2023-01-12T06:27:46.060Z,21.95
2023-01-12T06:30:33.270Z,19.70
2023-01-12T06:33:18.585Z,18.30
2023-01-12T06:36:04.694Z,19.40
2023-01-12T06:38:50.126Z,18.45
2023-01-12T06:41:57.187Z,19.20
2023-01-12T06:44:42.825Z,20.52
2023-01-12T06:47:28.494Z,24.42
2023-01-12T06:50:14.529Z,24.60
2023-01-12T06:53:01.102Z,26.20
2023-01-12T06:55:50.892Z,23.58
2023-01-12T06:58:36.422Z,20.75
2023-01-12T07:01:23.076Z,20.70
2023-01-12T07:04:13.298Z,18.67
2023-01-12T07:07:01.038Z,19.15
2023-01-12T07:09:46.811Z,20.37
2023-01-12T07:12:39.716Z,18.35
2023-01-12T07:15:25.985Z,23.85
2023-01-12T07:18:12.376Z,15.82
2023-01-12T07:20:58.095Z,16.75
2023-01-12T07:23:44.270Z,14.57
2023-01-12T07:26:29.475Z,17.92
2023-01-12T07:29:16.243Z,15.55
2023-01-12T07:32:03.359Z,12.73
2023-01-12T07:34:51.841Z,14.90
2023-01-12T07:37:37.382Z,21.35
2023-01-12T07:40:22.688Z,24.30
2023-01-12T07:43:09.072Z,29.95
2023-01-12T07:46:00.658Z,23.02
2023-01-12T07:48:48.019Z,24.55
2023-01-12T07:51:35.272Z,22.70
2023-01-12T07:54:23.625Z,22.40
2023-01-12T07:57:10.918Z,19.98
2023-01-12T07:59:55.932Z,16.52
2023-01-12T08:02:41.979Z,14.82
2023-01-12T08:05:27.554Z,15.18
2023-01-12T08:08:13.599Z,14.05
2023-01-12T08:11:03.746Z,13.40
2023-01-12T08:13:49.312Z,14.70
2023-01-12T08:16:40.878Z,13.15
2023-01-12T08:19:31.286Z,16.50
2023-01-12T08:22:22.354Z,11.88
2023-01-12T08:25:11.366Z,13.00
2023-01-12T08:28:00.736Z,11.43
2023-01-12T08:30:49.265Z,11.95
2023-01-12T08:33:34.926Z,19.75
2023-01-12T08:36:21.898Z,13.35
2023-01-12T08:39:07.415Z,11.57
2023-01-12T08:41:52.797Z,11.30
2023-01-12T08:44:40.739Z,9.90
2023-01-12T08:47:28.322Z,11.88
2023-01-12T08:50:14.616Z,11.35
2023-01-12T08:53:00.203Z,12.32
2023-01-12T08:55:55.833Z,10.60
2023-01-12T08:58:43.921Z,10.00
2023-01-12T09:01:29.595Z,11.12
2023-01-12T09:04:14.947Z,11.27
2023-01-12T09:07:00.589Z,11.12
2023-01-12T09:09:49.173Z,10.63
2023-01-12T09:12:35.871Z,9.77
2023-01-12T09:15:22.370Z,13.40
2023-01-12T09:18:08.695Z,9.48
2023-01-12T09:21:01.727Z,9.85
2023-01-12T09:23:49.357Z,12.73
2023-01-12T09:26:43.522Z,12.48
2023-01-12T09:29:31.559Z,13.45
2023-01-12T09:32:26.044Z,10.93
2023-01-12T09:35:15.081Z,11.48
2023-01-12T09:38:00.189Z,10.85
2023-01-12T09:40:46.061Z,9.80
2023-01-12T09:43:50.401Z,10.25
2023-01-12T09:46:56.512Z,9.18
2023-01-12T09:49:47.301Z,9.75
2023-01-12T09:52:57.386Z,10.52
2023-01-12T09:56:03.073Z,9.13
2023-01-12T09:59:44.230Z,8.63
2023-01-12T10:02:35.574Z,11.12
2023-01-12T10:05:44.692Z,9.63
2023-01-12T10:08:36.438Z,8.40
2023-01-12T10:11:39.135Z,10.73
2023-01-12T10:14:33.385Z,8.82
2023-01-12T10:17:51.385Z,8.68
2023-01-12T10:20:42.635Z,18.48
2023-01-12T10:23:28.423Z,10.43
2023-01-12T10:26:23.203Z,9.70
2023-01-12T10:29:10.709Z,9.90
2023-01-12T10:31:55.916Z,10.48
2023-01-12T10:34:54.234Z,7.93
2023-01-12T10:37:56.882Z,8.30
2023-01-12T10:40:44.608Z,9.23
2023-01-12T10:43:34.575Z,7.90
2023-01-12T10:46:24.385Z,7.97
2023-01-12T10:49:21.509Z,5.85
2023-01-12T10:52:11.299Z,7.68
2023-01-12T10:54:58.938Z,6.10
2023-01-12T10:57:46.244Z,5.03
2023-01-12T11:00:32.120Z,4.53
2023-01-12T11:03:33.995Z,4.57
2023-01-12T11:06:30.906Z,3.47
2023-01-12T11:09:28.988Z,3.58
2023-01-12T11:12:23.764Z,3.35
2023-01-12T11:15:12.266Z,3.50
2023-01-12T11:17:57.479Z,3.30
2023-01-12T11:20:48.020Z,2.47
2023-01-12T11:23:48.395Z,3.60
2023-01-12T11:26:37.086Z,2.95
2023-01-12T11:29:45.410Z,3.45
2023-01-12T11:32:37.070Z,3.78
2023-01-12T11:35:50.136Z,4.03
2023-01-12T11:38:44.567Z,4.37
2023-01-12T11:42:10.477Z,3.72
2023-01-12T11:45:28.445Z,6.70
2023-01-12T11:48:21.654Z,4.12
2023-01-12T11:51:08.672Z,4.63
2023-01-12T11:53:54.437Z,4.50
2023-01-12T11:56:58.873Z,4.78
2023-01-12T11:59:56.397Z,5.32
2023-01-12T12:02:46.379Z,5.87
2023-01-12T12:05:47.523Z,5.35
2023-01-12T12:09:04.347Z,7.32
2023-01-12T12:12:27.645Z,6.30
2023-01-12T12:15:22.964Z,6.78
2023-01-12T12:18:26.701Z,7.80
2023-01-12T12:21:30.480Z,7.43
2023-01-12T12:24:21.789Z,7.00
2023-01-12T12:27:21.435Z,6.07
2023-01-12T12:30:22.270Z,5.65
2023-01-12T12:33:45.363Z,6.05
2023-01-12T12:36:51.539Z,7.15
2023-01-12T12:39:42.758Z,7.12
2023-01-12T12:43:03.367Z,6.90
2023-01-12T12:45:56.895Z,7.50
2023-01-12T12:49:05.365Z,7.75
2023-01-12T12:51:53.068Z,7.75
2023-01-12T12:54:39.988Z,7.85
2023-01-12T12:57:25.367Z,10.98
2023-01-12T13:00:30.369Z,7.57
2023-01-12T13:03:40.443Z,7.75
2023-01-12T13:06:38.541Z,7.35
2023-01-12T13:09:25.279Z,7.53
2023-01-12T13:12:33.916Z,7.82
2023-01-12T13:15:21.946Z,9.30
2023-01-12T13:18:45.986Z,7.55
2023-01-12T13:21:57.221Z,8.73
2023-01-12T13:24:44.658Z,6.43
2023-01-12T13:27:49.019Z,7.05
2023-01-12T13:30:35.024Z,8.70
2023-01-12T13:33:28.481Z,7.07
2023-01-12T13:36:30.496Z,7.30
2023-01-12T13:39:16.343Z,8.82
2023-01-12T13:42:20.526Z,6.65
2023-01-12T13:45:11.539Z,6.65
2023-01-12T13:47:57.100Z,8.63
2023-01-12T13:50:48.050Z,8.93
2023-01-12T13:53:33.614Z,8.43
2023-01-12T13:56:24.468Z,5.90
2023-01-12T13:59:18.253Z,7.82
2023-01-12T14:02:04.079Z,6.50
2023-01-12T14:04:57.521Z,5.93
2023-01-12T14:08:24.376Z,9.83
2023-01-12T14:11:20.811Z,9.40
2023-01-12T14:14:58.912Z,5.90
2023-01-12T14:17:53.594Z,6.80
2023-01-12T14:20:58.574Z,6.62
2023-01-12T14:23:44.145Z,7.30
2023-01-12T14:26:30.537Z,8.10
2023-01-12T14:29:15.831Z,7.95
2023-01-12T14:32:01.340Z,10.10
2023-01-12T14:34:52.395Z,7.82
2023-01-12T14:37:37.375Z,9.80
2023-01-12T14:40:27.986Z,7.82
2023-01-12T14:43:33.214Z,8.32
2023-01-12T14:46:25.318Z,8.07
2023-01-12T14:49:22.752Z,8.38
2023-01-12T14:52:16.924Z,8.70
2023-01-12T14:55:18.708Z,9.98
2023-01-12T14:58:05.180Z,9.65
2023-01-12T15:00:50.753Z,10.15
2023-01-12T15:03:43.712Z,9.60
2023-01-12T15:06:29.355Z,10.10
2023-01-12T15:09:27.643Z,12.02
2023-01-12T15:12:25.607Z,11.93
2023-01-12T15:15:15.079Z,9.60
2023-01-12T15:18:18.779Z,11.18
2023-01-12T15:21:22.875Z,14.50
2023-01-12T15:24:53.566Z,11.00
2023-01-12T15:27:40.179Z,12.65
2023-01-12T15:30:25.161Z,11.60
2023-01-12T15:33:10.600Z,13.27
2023-01-12T15:35:58.641Z,12.05
2023-01-12T15:38:44.536Z,17.12
2023-01-12T15:41:49.714Z,12.00
2023-01-12T15:44:34.832Z,14.30
2023-01-12T15:47:21.193Z,11.45
2023-01-12T15:50:07.197Z,12.43
2023-01-12T15:52:52.781Z,13.00
2023-01-12T15:55:39.530Z,12.43
2023-01-12T15:58:24.886Z,12.18
2023-01-12T16:01:16.357Z,13.90
2023-01-12T16:04:39.807Z,13.77
2023-01-12T16:07:06.943Z,13.70
2023-01-12T16:09:52.384Z,14.13
2023-01-12T16:12:37.904Z,13.68
2023-01-12T16:15:24.628Z,14.75
2023-01-12T16:18:10.221Z,13.75
2023-01-12T16:20:59.359Z,13.70
2023-01-12T16:23:45.910Z,13.90
2023-01-12T16:26:31.441Z,13.43
2023-01-12T16:29:17.565Z,14.52
2023-01-12T16:32:03.383Z,14.77
2023-01-12T16:34:48.631Z,13.90
2023-01-12T16:37:35.352Z,14.75
2023-01-12T16:40:20.843Z,15.57
2023-01-12T16:43:06.235Z,17.30
2023-01-12T16:45:52.073Z,14.60
2023-01-12T16:48:39.404Z,16.25
2023-01-12T16:51:25.763Z,16.05
2023-01-12T16:54:10.698Z,17.00
2023-01-12T16:56:56.177Z,17.75
2023-01-12T16:59:41.921Z,31.00
2023-01-12T17:02:28.884Z,32.50
2023-01-12T17:05:15.206Z,19.25
2023-01-12T17:08:00.431Z,21.48
2023-01-12T17:10:45.765Z,18.92
2023-01-12T17:13:31.163Z,19.25
2023-01-12T17:16:16.564Z,18.37
2023-01-12T17:19:02.316Z,17.55
2023-01-12T17:21:48.071Z,18.83
2023-01-12T17:24:36.098Z,27.55
2023-01-12T17:27:21.868Z,30.37
2023-01-12T17:30:07.825Z,36.85
2023-01-12T17:32:53.217Z,33.67
2023-01-12T17:35:38.471Z,37.25
2023-01-12T17:38:23.787Z,35.80
2023-01-12T17:41:34.171Z,35.30
2023-01-12T17:44:20.388Z,39.45
2023-01-12T17:47:05.786Z,35.35
2023-01-12T17:49:51.352Z,36.35
2023-01-12T17:52:36.330Z,33.88
2023-01-12T17:55:22.195Z,33.72
2023-01-12T17:58:07.745Z,33.78
2023-01-12T18:00:52.889Z,35.15
2023-01-12T18:03:38.364Z,35.08
2023-01-12T18:06:27.386Z,35.92
2023-01-12T18:09:12.711Z,30.62
2023-01-12T18:11:58.159Z,33.42
2023-01-12T18:14:43.656Z,36.30
2023-01-12T18:17:30.098Z,34.80
2023-01-12T18:20:15.387Z,35.38
2023-01-12T18:23:00.699Z,36.42
2023-01-12T18:25:46.142Z,34.13
2023-01-12T18:28:31.441Z,26.35
2023-01-12T18:31:19.455Z,33.00
2023-01-12T18:34:07.734Z,29.42
2023-01-12T18:36:53.106Z,28.27
2023-01-12T18:39:41.351Z,30.55
2023-01-12T18:42:45.086Z,34.85
2023-01-12T18:48:23.723Z,29.85
2023-01-12T18:51:27.582Z,31.47
2023-01-12T18:54:12.791Z,33.88
2023-01-12T18:56:59.315Z,34.70
2023-01-12T18:59:50.390Z,41.05
2023-01-12T19:02:35.469Z,42.75
2023-01-12T19:05:25.462Z,41.90
2023-01-12T19:08:29.712Z,34.92
2023-01-12T19:14:19.580Z,37.33
2023-01-12T19:17:23.464Z,38.83
2023-01-12T19:20:14.423Z,38.53
2023-01-12T19:23:18.416Z,42.65
2023-01-12T19:26:22.315Z,41.47
2023-01-12T19:29:07.688Z,41.25
2023-01-12T19:31:53.124Z,36.42
2023-01-12T19:34:38.354Z,41.70
2023-01-12T19:37:23.727Z,24.55
2023-01-12T19:40:25.726Z,41.03
2023-01-12T19:43:19.362Z,38.47
2023-01-12T19:46:04.741Z,39.00
2023-01-12T19:48:50.123Z,43.30
2023-01-12T19:51:35.609Z,39.45
2023-01-12T19:54:21.139Z,42.90
2023-01-12T19:57:06.458Z,39.75
2023-01-12T19:59:51.727Z,40.38
2023-01-12T20:02:36.907Z,39.60
2023-01-12T20:05:22.844Z,40.12
2023-01-12T20:08:08.868Z,41.45
2023-01-12T20:10:58.997Z,37.35
2023-01-12T20:13:44.452Z,37.10
2023-01-12T20:16:30.107Z,39.20
2023-01-12T20:19:15.473Z,35.03
2023-01-12T20:22:01.596Z,37.67
2023-01-12T20:24:47.634Z,39.50
2023-01-12T20:27:34.192Z,42.17
2023-01-12T20:30:36.580Z,39.65
2023-01-12T20:33:24.507Z,39.10
2023-01-12T20:36:11.767Z,39.20
2023-01-12T20:38:58.497Z,37.55
2023-01-12T20:41:43.775Z,39.70
2023-01-12T20:44:29.293Z,39.63
2023-01-12T20:47:19.074Z,41.92
2023-01-12T20:50:07.655Z,35.83
2023-01-12T20:52:56.981Z,35.08
2023-01-12T20:55:44.346Z,35.45
2023-01-12T20:58:29.983Z,36.42
2023-01-12T21:01:15.841Z,37.05
2023-01-12T21:04:01.326Z,38.17
2023-01-12T21:06:46.742Z,43.60
2023-01-12T21:09:32.069Z,47.75
2023-01-12T21:12:17.559Z,44.88
2023-01-12T21:15:03.623Z,48.03
2023-01-12T21:17:49.522Z,43.08
2023-01-12T21:20:34.703Z,45.95
2023-01-12T21:23:20.533Z,46.00
2023-01-12T21:26:08.844Z,47.13
2023-01-12T21:28:53.947Z,46.25
2023-01-12T21:31:39.235Z,47.78
2023-01-12T21:34:24.408Z,45.88
2023-01-12T21:37:10.089Z,38.92
2023-01-12T21:39:55.496Z,33.00
2023-01-12T21:42:59.536Z,34.67
2023-01-12T21:48:35.389Z,32.75
2023-01-12T21:51:23.773Z,34.42
2023-01-12T21:54:09.449Z,31.37
2023-01-12T21:56:54.599Z,33.75
2023-01-12T21:59:39.716Z,30.00
2023-01-12T22:02:25.589Z,30.70
2023-01-12T22:05:11.312Z,30.48
2023-01-12T22:07:57.868Z,32.53
2023-01-12T22:10:43.414Z,40.85
2023-01-12T22:13:28.769Z,43.25
2023-01-12T22:16:15.787Z,54.20
2023-01-12T22:19:00.987Z,54.63
2023-01-12T22:21:46.408Z,42.28
2023-01-12T22:24:31.805Z,37.30
2023-01-12T22:27:17.837Z,32.53
2023-01-12T22:30:04.838Z,41.28
2023-01-12T22:32:55.412Z,34.78
2023-01-12T22:35:40.800Z,36.35
2023-01-12T22:38:25.972Z,33.92
2023-01-12T22:41:12.159Z,34.58
2023-01-12T22:43:57.150Z,37.97
2023-01-12T22:46:44.650Z,33.55
2023-01-12T22:49:30.063Z,36.42
2023-01-12T22:52:15.280Z,34.33
2023-01-12T22:55:00.807Z,32.72
2023-01-12T22:57:47.426Z,36.42
2023-01-12T23:00:32.705Z,35.85
2023-01-12T23:03:18.697Z,32.35
2023-01-12T23:06:12.084Z,49.30
2023-01-12T23:08:57.394Z,39.38
2023-01-12T23:11:42.751Z,29.85
2023-01-12T23:14:28.026Z,28.35
2023-01-12T23:17:12.967Z,30.77
2023-01-12T23:19:58.472Z,29.25
2023-01-12T23:22:43.603Z,27.45
2023-01-12T23:25:29.149Z,29.15
2023-01-12T23:28:14.992Z,27.90
2023-01-12T23:31:09.840Z,28.85
2023-01-12T23:33:57.015Z,28.50
2023-01-12T23:36:44.331Z,26.42
2023-01-12T23:39:29.897Z,25.45
2023-01-12T23:42:15.236Z,26.62
2023-01-12T23:45:01.064Z,25.90
2023-01-12T23:47:47.413Z,25.08
2023-01-12T23:50:44.407Z,24.17
2023-01-12T23:53:30.170Z,25.25
2023-01-12T23:56:16.785Z,25.55
2023-01-12T23:59:02.209Z,24.90
